createdAt,value
2023-04-02T00:00:29.126Z,431.00
2023-04-02T00:01:29.196Z,430.00
2023-04-02T00:02:29.431Z,426.00
2023-04-02T00:03:29.361Z,425.00
2023-04-02T00:04:29.409Z,426.00
2023-04-02T00:05:29.516Z,428.00
2023-04-02T00:06:29.575Z,427.00
2023-04-02T00:07:29.635Z,426.00
2023-04-02T00:08:29.719Z,425.00
2023-04-02T00:09:29.781Z,426.00
2023-04-02T00:10:29.870Z,425.00
2023-04-02T00:11:29.942Z,428.00
2023-04-02T00:12:30.110Z,431.00
2023-04-02T00:13:30.106Z,433.00
2023-04-02T00:14:30.118Z,433.00
2023-04-02T00:15:30.222Z,435.00
2023-04-02T00:16:30.372Z,436.00
2023-04-02T00:17:30.338Z,437.00
2023-04-02T00:18:30.412Z,436.00
2023-04-02T00:19:30.521Z,435.00
2023-04-02T00:20:30.572Z,435.00
2023-04-02T00:21:30.671Z,435.00
2023-04-02T00:22:30.703Z,435.00
2023-04-02T00:23:30.748Z,435.00
2023-04-02T00:24:30.876Z,435.00
2023-04-02T00:25:30.941Z,431.00
2023-04-02T00:26:30.986Z,431.00
2023-04-02T00:27:31.099Z,432.00
2023-04-02T00:28:31.144Z,433.00
2023-04-02T00:29:31.228Z,431.00
2023-04-02T00:30:31.288Z,433.00
2023-04-02T00:31:31.379Z,432.00
2023-04-02T00:32:31.466Z,434.00
2023-04-02T00:33:31.540Z,431.00
2023-04-02T00:34:31.609Z,430.00
2023-04-02T00:35:31.660Z,430.00
2023-04-02T00:36:31.790Z,429.00
2023-04-02T00:37:31.830Z,426.00
2023-04-02T00:38:31.887Z,424.00
2023-04-02T00:39:31.984Z,425.00
2023-04-02T00:40:32.037Z,426.00
2023-04-02T00:41:32.069Z,428.00
2023-04-02T00:42:32.153Z,428.00
2023-04-02T00:43:32.216Z,429.00
2023-04-02T00:44:32.247Z,432.00
2023-04-02T00:45:32.551Z,433.00
2023-04-02T00:46:32.557Z,433.00
2023-04-02T00:47:32.485Z,433.00
2023-04-02T00:48:32.551Z,433.00
2023-04-02T00:49:32.620Z,431.00
2023-04-02T00:50:32.682Z,430.00
2023-04-02T00:51:32.745Z,428.00
2023-04-02T00:52:32.827Z,429.00
2023-04-02T00:53:32.890Z,429.00
2023-04-02T00:54:32.980Z,429.00
2023-04-02T00:55:33.235Z,429.00
2023-04-02T00:56:33.067Z,429.00
2023-04-02T00:57:33.180Z,432.00
2023-04-02T00:58:33.289Z,432.00
2023-04-02T00:59:33.310Z,431.00
2023-04-02T01:00:33.417Z,431.00
2023-04-02T01:01:33.450Z,429.00
2023-04-02T01:02:33.627Z,430.00
2023-04-02T01:03:33.807Z,434.00
2023-04-02T01:04:33.658Z,435.00
2023-04-02T01:05:33.910Z,434.00
2023-04-02T01:06:33.786Z,435.00
2023-04-02T01:07:33.883Z,434.00
2023-04-02T01:08:33.901Z,433.00
2023-04-02T01:09:34.001Z,431.00
2023-04-02T01:10:34.036Z,433.00
2023-04-02T01:11:34.118Z,431.00
2023-04-02T01:12:34.207Z,428.00
2023-04-02T01:13:34.270Z,428.00
2023-04-02T01:14:34.341Z,429.00
2023-04-02T01:15:34.675Z,430.00
2023-04-02T01:16:34.496Z,433.00
2023-04-02T01:17:34.593Z,434.00
2023-04-02T01:18:34.630Z,434.00
2023-04-02T01:19:34.710Z,434.00
2023-04-02T01:20:34.855Z,434.00
2023-04-02T01:21:34.894Z,432.00
2023-04-02T01:22:35.025Z,428.00
2023-04-02T01:23:35.029Z,427.00
2023-04-02T01:24:35.104Z,428.00
2023-04-02T01:25:35.310Z,428.00
2023-04-02T01:26:35.269Z,429.00
2023-04-02T01:27:35.323Z,431.00
2023-04-02T01:28:35.395Z,432.00
2023-04-02T01:29:35.484Z,431.00
2023-04-02T01:30:35.539Z,432.00
2023-04-02T01:31:35.606Z,432.00
2023-04-02T01:32:35.675Z,432.00
2023-04-02T01:33:35.747Z,433.00
2023-04-02T01:34:35.794Z,431.00
2023-04-02T01:35:36.032Z,433.00
2023-04-02T01:36:35.924Z,432.00
2023-04-02T01:37:36.021Z,433.00
2023-04-02T01:38:36.088Z,432.00
2023-04-02T01:39:36.134Z,434.00
2023-04-02T01:40:36.219Z,434.00
2023-04-02T01:41:36.260Z,434.00
2023-04-02T01:42:36.343Z,433.00
2023-04-02T01:43:36.434Z,434.00
2023-04-02T01:44:36.502Z,434.00
2023-04-02T01:45:36.920Z,434.00
2023-04-02T01:46:36.620Z,433.00
2023-04-02T01:47:36.808Z,430.00
2023-04-02T01:48:36.784Z,431.00
2023-04-02T01:49:36.869Z,431.00
2023-04-02T01:50:36.898Z,434.00
2023-04-02T01:51:36.970Z,433.00
2023-04-02T01:52:37.071Z,434.00
2023-04-02T01:53:37.172Z,430.00
2023-04-02T01:54:37.228Z,434.00
2023-04-02T01:55:37.391Z,434.00
2023-04-02T01:56:37.339Z,432.00
2023-04-02T01:57:37.413Z,431.00
2023-04-02T01:58:37.546Z,429.00
2023-04-02T01:59:37.598Z,430.00
2023-04-02T02:00:37.736Z,429.00
2023-04-02T02:01:37.746Z,431.00
2023-04-02T02:02:37.949Z,430.00
2023-04-02T02:03:37.894Z,432.00
2023-04-02T02:04:37.968Z,431.00
2023-04-02T02:05:38.055Z,430.00
2023-04-02T02:06:38.126Z,430.00
2023-04-02T02:07:38.231Z,432.00
2023-04-02T02:08:38.276Z,431.00
2023-04-02T02:09:38.360Z,432.00
2023-04-02T02:10:38.434Z,431.00
2023-04-02T02:11:38.528Z,432.00
2023-04-02T02:12:38.586Z,431.00
2023-04-02T02:13:39.895Z,434.00
2023-04-02T02:14:38.666Z,434.00
2023-04-02T02:15:38.693Z,435.00
2023-04-02T02:16:38.786Z,434.00
2023-04-02T02:17:38.785Z,433.00
2023-04-02T02:18:38.753Z,432.00
2023-04-02T02:19:38.788Z,430.00
2023-04-02T02:20:38.801Z,431.00
2023-04-02T02:21:38.847Z,429.00
2023-04-02T02:22:38.876Z,429.00
2023-04-02T02:23:38.913Z,428.00
2023-04-02T02:24:38.963Z,429.00
2023-04-02T02:25:38.942Z,428.00
2023-04-02T02:26:38.956Z,429.00
2023-04-02T02:27:38.993Z,430.00
2023-04-02T02:28:39.024Z,430.00
2023-04-02T02:29:39.145Z,425.00
2023-04-02T02:30:39.069Z,426.00
2023-04-02T02:31:39.117Z,427.00
2023-04-02T02:32:39.167Z,429.00
2023-04-02T02:33:39.129Z,427.00
2023-04-02T02:34:39.152Z,428.00
2023-04-02T02:35:39.295Z,430.00
2023-04-02T02:36:39.213Z,429.00
2023-04-02T02:37:39.223Z,427.00
2023-04-02T02:38:39.277Z,429.00
2023-04-02T02:39:39.277Z,427.00
2023-04-02T02:40:39.302Z,426.00
2023-04-02T02:41:39.317Z,429.00
2023-04-02T02:42:39.352Z,430.00
2023-04-02T02:43:39.376Z,430.00
2023-04-02T02:44:39.403Z,430.00
2023-04-02T02:45:39.451Z,430.00
2023-04-02T02:46:39.430Z,432.00
2023-04-02T02:47:39.486Z,433.00
2023-04-02T02:48:39.504Z,434.00
2023-04-02T02:49:39.506Z,434.00
2023-04-02T02:50:39.568Z,433.00
2023-04-02T02:51:39.602Z,431.00
2023-04-02T02:52:39.616Z,433.00
2023-04-02T02:53:39.640Z,433.00
2023-04-02T02:54:39.635Z,433.00
2023-04-02T02:55:39.659Z,435.00
2023-04-02T02:56:39.706Z,434.00
2023-04-02T02:57:39.762Z,434.00
2023-04-02T02:58:39.750Z,433.00
2023-04-02T02:59:39.798Z,433.00
2023-04-02T03:00:39.825Z,432.00
2023-04-02T03:01:39.881Z,434.00
2023-04-02T03:02:39.946Z,434.00
2023-04-02T03:03:40.159Z,434.00
2023-04-02T03:04:39.951Z,437.00
2023-04-02T03:05:40.008Z,438.00
2023-04-02T03:06:40.119Z,439.00
2023-04-02T03:07:40.197Z,438.00
2023-04-02T03:08:40.309Z,438.00
2023-04-02T03:09:40.374Z,437.00
2023-04-02T03:10:40.412Z,437.00
2023-04-02T03:11:40.476Z,438.00
2023-04-02T03:12:40.630Z,440.00
2023-04-02T03:13:40.668Z,440.00
2023-04-02T03:14:40.760Z,442.00
2023-04-02T03:15:40.887Z,439.00
2023-04-02T03:16:40.890Z,437.00
2023-04-02T03:17:41.026Z,437.00
2023-04-02T03:18:41.076Z,439.00
2023-04-02T03:19:41.128Z,437.00
2023-04-02T03:20:41.215Z,439.00
2023-04-02T03:21:41.293Z,438.00
2023-04-02T03:22:41.414Z,440.00
2023-04-02T03:23:41.471Z,439.00
2023-04-02T03:24:41.571Z,437.00
2023-04-02T03:25:41.650Z,440.00
2023-04-02T03:26:41.727Z,440.00
2023-04-02T03:27:41.802Z,438.00
2023-04-02T03:28:41.885Z,440.00
2023-04-02T03:29:41.924Z,441.00
2023-04-02T03:30:42.054Z,441.00
2023-04-02T03:31:42.144Z,442.00
2023-04-02T03:32:42.231Z,442.00
2023-04-02T03:33:42.237Z,445.00
2023-04-02T03:34:42.295Z,445.00
2023-04-02T03:35:42.409Z,444.00
2023-04-02T03:36:42.478Z,443.00
2023-04-02T03:37:42.558Z,445.00
2023-04-02T03:38:42.607Z,444.00
2023-04-02T03:39:42.684Z,444.00
2023-04-02T03:40:42.749Z,444.00
2023-04-02T03:41:42.822Z,442.00
2023-04-02T03:42:42.902Z,442.00
2023-04-02T03:43:42.977Z,442.00
2023-04-02T03:44:43.071Z,441.00
2023-04-02T03:45:43.149Z,441.00
2023-04-02T03:46:43.234Z,442.00
2023-04-02T03:47:43.339Z,442.00
2023-04-02T03:48:43.398Z,443.00
2023-04-02T03:49:43.451Z,443.00
2023-04-02T03:50:43.560Z,444.00
2023-04-02T03:51:43.611Z,443.00
2023-04-02T03:52:43.687Z,444.00
2023-04-02T03:53:43.762Z,443.00
2023-04-02T03:54:53.802Z,440.00
2023-04-02T03:55:44.872Z,438.00
2023-04-02T03:56:43.865Z,439.00
2023-04-02T03:57:43.889Z,438.00
2023-04-02T03:58:43.906Z,440.00
2023-04-02T03:59:43.910Z,441.00
2023-04-02T04:00:43.960Z,441.00
2023-04-02T04:01:44.036Z,442.00
2023-04-02T04:02:44.034Z,442.00
2023-04-02T04:03:44.061Z,444.00
2023-04-02T04:04:44.048Z,442.00
2023-04-02T04:05:44.078Z,440.00
2023-04-02T04:06:44.112Z,439.00
2023-04-02T04:07:44.111Z,438.00
2023-04-02T04:08:44.142Z,438.00
2023-04-02T04:09:44.166Z,439.00
2023-04-02T04:10:44.205Z,438.00
2023-04-02T04:11:44.212Z,438.00
2023-04-02T04:12:44.197Z,439.00
2023-04-02T04:13:44.341Z,441.00
2023-04-02T04:14:45.311Z,441.00
2023-04-02T04:15:44.270Z,442.00
2023-04-02T04:16:44.345Z,444.00
2023-04-02T04:17:44.338Z,445.00
2023-04-02T04:18:44.351Z,446.00
2023-04-02T04:19:44.407Z,449.00
2023-04-02T04:20:44.391Z,450.00
2023-04-02T04:21:44.402Z,452.00
2023-04-02T04:22:44.435Z,452.00
2023-04-02T04:23:44.454Z,454.00
2023-04-02T04:24:44.497Z,453.00
2023-04-02T04:25:44.476Z,451.00
2023-04-02T04:26:44.557Z,450.00
2023-04-02T04:27:44.524Z,449.00
2023-04-02T04:28:44.601Z,449.00
2023-04-02T04:29:44.573Z,449.00
2023-04-02T04:30:44.601Z,448.00
2023-04-02T04:31:44.656Z,446.00
2023-04-02T04:32:44.680Z,446.00
2023-04-02T04:33:44.680Z,445.00
2023-04-02T04:34:44.710Z,445.00
2023-04-02T04:35:44.787Z,447.00
2023-04-02T04:36:44.726Z,448.00
2023-04-02T04:37:44.774Z,448.00
2023-04-02T04:38:44.791Z,451.00
2023-04-02T04:39:44.851Z,452.00
2023-04-02T04:40:44.874Z,453.00
2023-04-02T04:41:45.039Z,455.00
2023-04-02T04:42:45.096Z,455.00
2023-04-02T04:43:45.146Z,454.00
2023-04-02T04:44:45.264Z,452.00
2023-04-02T04:45:45.324Z,452.00
2023-04-02T04:46:45.402Z,450.00
2023-04-02T04:47:45.505Z,448.00
2023-04-02T04:48:45.591Z,446.00
2023-04-02T04:49:45.619Z,446.00
2023-04-02T04:50:45.712Z,445.00
2023-04-02T04:51:45.757Z,446.00
2023-04-02T04:52:45.831Z,448.00
2023-04-02T04:53:45.885Z,451.00
2023-04-02T04:54:45.945Z,453.00
2023-04-02T04:55:46.056Z,450.00
2023-04-02T04:56:46.111Z,449.00
2023-04-02T04:57:46.196Z,447.00
2023-04-02T04:58:46.268Z,444.00
2023-04-02T04:59:46.320Z,445.00
2023-04-02T05:00:46.564Z,446.00
2023-04-02T05:01:46.525Z,445.00
2023-04-02T05:02:46.553Z,443.00
2023-04-02T05:03:46.597Z,442.00
2023-04-02T05:04:46.779Z,444.00
2023-04-02T05:05:46.789Z,447.00
2023-04-02T05:06:46.880Z,446.00
2023-04-02T05:07:46.963Z,446.00
2023-04-02T05:08:47.021Z,446.00
2023-04-02T05:09:47.103Z,447.00
2023-04-02T05:10:47.173Z,444.00
2023-04-02T05:11:47.239Z,443.00
2023-04-02T05:12:47.304Z,443.00
2023-04-02T05:13:47.384Z,443.00
2023-04-02T05:14:47.439Z,445.00
2023-04-02T05:15:47.537Z,444.00
2023-04-02T05:16:47.612Z,444.00
2023-04-02T05:17:47.728Z,444.00
2023-04-02T05:18:47.782Z,444.00
2023-04-02T05:19:47.841Z,445.00
2023-04-02T05:20:47.917Z,444.00
2023-04-02T05:21:47.974Z,443.00
2023-04-02T05:22:48.111Z,445.00
2023-04-02T05:23:48.147Z,444.00
2023-04-02T05:24:48.223Z,445.00
2023-04-02T05:25:48.344Z,446.00
2023-04-02T05:26:48.399Z,445.00
2023-04-02T05:27:48.467Z,447.00
2023-04-02T05:28:48.524Z,448.00
2023-04-02T05:29:48.592Z,449.00
2023-04-02T05:30:48.649Z,450.00
2023-04-02T05:31:48.900Z,452.00
2023-04-02T05:32:48.863Z,451.00
2023-04-02T05:33:48.922Z,452.00
2023-04-02T05:34:48.976Z,452.00
2023-04-02T05:35:49.125Z,452.00
2023-04-02T05:36:49.152Z,451.00
2023-04-02T05:37:49.202Z,449.00
2023-04-02T05:38:49.275Z,450.00
2023-04-02T05:39:49.337Z,454.00
2023-04-02T05:40:49.444Z,455.00
2023-04-02T05:41:49.532Z,454.00
2023-04-02T05:42:49.577Z,452.00
2023-04-02T05:43:49.677Z,453.00
2023-04-02T05:44:49.756Z,451.00
2023-04-02T05:45:49.828Z,450.00
2023-04-02T05:46:49.981Z,451.00
2023-04-02T05:47:50.045Z,452.00
2023-04-02T05:48:50.095Z,453.00
2023-04-02T05:49:50.136Z,453.00
2023-04-02T05:50:50.219Z,452.00
2023-04-02T05:51:50.331Z,451.00
2023-04-02T05:52:50.373Z,450.00
2023-04-02T05:53:50.448Z,449.00
2023-04-02T05:54:50.537Z,450.00
2023-04-02T05:55:50.608Z,453.00
2023-04-02T05:56:50.678Z,455.00
2023-04-02T05:58:07.004Z,455.00
2023-04-02T05:58:51.861Z,454.00
2023-04-02T05:59:50.802Z,453.00
2023-04-02T06:00:50.781Z,453.00
2023-04-02T06:01:50.859Z,450.00
2023-04-02T06:02:50.903Z,448.00
2023-04-02T06:03:50.918Z,447.00
2023-04-02T06:04:50.880Z,446.00
2023-04-02T06:05:50.917Z,447.00
2023-04-02T06:06:50.953Z,448.00
2023-04-02T06:07:50.968Z,449.00
2023-04-02T06:08:50.973Z,448.00
2023-04-02T06:09:51.062Z,447.00
2023-04-02T06:10:51.155Z,445.00
2023-04-02T06:11:51.245Z,444.00
2023-04-02T06:12:51.578Z,445.00
2023-04-02T06:13:51.399Z,445.00
2023-04-02T06:14:51.456Z,447.00
2023-04-02T06:15:51.551Z,449.00
2023-04-02T06:16:51.669Z,448.00
2023-04-02T06:17:51.752Z,450.00
2023-04-02T06:18:51.826Z,448.00
2023-04-02T06:19:51.834Z,451.00
2023-04-02T06:20:51.901Z,449.00
2023-04-02T06:21:51.959Z,449.00
2023-04-02T06:22:52.029Z,451.00
2023-04-02T06:23:52.139Z,453.00
2023-04-02T06:24:52.195Z,456.00
2023-04-02T06:25:53.343Z,457.00
2023-04-02T06:26:52.326Z,457.00
2023-04-02T06:27:52.449Z,457.00
2023-04-02T06:28:52.501Z,458.00
2023-04-02T06:29:52.531Z,457.00
2023-04-02T06:30:52.676Z,458.00
2023-04-02T06:31:52.682Z,457.00
2023-04-02T06:32:52.821Z,457.00
2023-04-02T06:33:52.868Z,458.00
2023-04-02T06:34:52.910Z,459.00
2023-04-02T06:35:53.025Z,458.00
2023-04-02T06:36:53.091Z,458.00
2023-04-02T06:37:53.183Z,457.00
2023-04-02T06:38:53.208Z,459.00
2023-04-02T06:39:53.314Z,460.00
2023-04-02T06:40:53.375Z,458.00
2023-04-02T06:41:53.449Z,459.00
2023-04-02T06:42:53.542Z,459.00
2023-04-02T06:43:53.610Z,459.00
2023-04-02T06:44:53.671Z,460.00
2023-04-02T06:45:53.783Z,461.00
2023-04-02T06:46:53.803Z,461.00
2023-04-02T06:47:53.927Z,459.00
2023-04-02T06:48:53.959Z,456.00
2023-04-02T06:49:54.020Z,456.00
2023-04-02T06:50:54.093Z,458.00
2023-04-02T06:51:54.163Z,457.00
2023-04-02T06:52:54.260Z,457.00
2023-04-02T06:53:54.292Z,456.00
2023-04-02T06:54:54.420Z,455.00
2023-04-02T06:55:54.495Z,455.00
2023-04-02T06:56:54.555Z,456.00
2023-04-02T06:57:54.608Z,455.00
2023-04-02T06:58:54.674Z,457.00
2023-04-02T06:59:54.737Z,459.00
2023-04-02T07:00:54.831Z,460.00
2023-04-02T07:01:54.910Z,460.00
2023-04-02T07:02:54.981Z,462.00
2023-04-02T07:03:55.014Z,461.00
2023-04-02T07:04:55.104Z,461.00
2023-04-02T07:05:55.176Z,461.00
2023-04-02T07:06:55.194Z,459.00
2023-04-02T07:07:55.346Z,460.00
2023-04-02T07:08:55.392Z,458.00
2023-04-02T07:09:55.449Z,459.00
2023-04-02T07:10:55.507Z,455.00
2023-04-02T07:11:55.530Z,452.00
2023-04-02T07:12:55.617Z,453.00
2023-04-02T07:13:55.691Z,453.00
2023-04-02T07:14:55.727Z,452.00
2023-04-02T07:15:55.839Z,452.00
2023-04-02T07:16:55.920Z,453.00
2023-04-02T07:17:56.031Z,452.00
2023-04-02T07:18:56.026Z,451.00
2023-04-02T07:19:56.182Z,451.00
2023-04-02T07:20:56.146Z,449.00
2023-04-02T07:21:56.225Z,449.00
2023-04-02T07:22:56.292Z,449.00
2023-04-02T07:23:56.425Z,453.00
2023-04-02T07:24:56.413Z,449.00
2023-04-02T07:25:56.479Z,449.00
2023-04-02T07:26:56.596Z,451.00
2023-04-02T07:27:56.659Z,451.00
2023-04-02T07:28:56.701Z,450.00
2023-04-02T07:29:56.775Z,448.00
2023-04-02T07:30:56.827Z,447.00
2023-04-02T07:31:56.948Z,451.00
2023-04-02T07:32:57.013Z,451.00
2023-04-02T07:33:57.011Z,450.00
2023-04-02T07:34:57.083Z,447.00
2023-04-02T07:35:57.183Z,447.00
2023-04-02T07:36:57.237Z,448.00
2023-04-02T07:37:57.309Z,447.00
2023-04-02T07:38:57.361Z,447.00
2023-04-02T07:39:57.440Z,448.00
2023-04-02T07:40:57.483Z,448.00
2023-04-02T07:41:57.563Z,449.00
2023-04-02T07:42:57.625Z,450.00
2023-04-02T07:43:57.745Z,447.00
2023-04-02T07:44:57.746Z,446.00
2023-04-02T07:45:57.795Z,444.00
2023-04-02T07:46:57.955Z,444.00
2023-04-02T07:47:57.968Z,444.00
2023-04-02T07:48:58.022Z,446.00
2023-04-02T07:49:58.043Z,444.00
2023-04-02T07:50:58.107Z,443.00
2023-04-02T07:51:59.078Z,444.00
2023-04-02T07:52:58.257Z,443.00
2023-04-02T07:53:58.314Z,445.00
2023-04-02T07:54:58.432Z,445.00
2023-04-02T07:55:58.483Z,445.00
2023-04-02T07:56:58.571Z,445.00
2023-04-02T07:57:58.598Z,447.00
2023-04-02T07:58:58.693Z,445.00
2023-04-02T07:59:58.755Z,445.00
2023-04-02T08:00:58.841Z,445.00
2023-04-02T08:01:58.962Z,445.00
2023-04-02T08:02:59.085Z,443.00
2023-04-02T08:03:59.047Z,441.00
2023-04-02T08:04:59.128Z,446.00
2023-04-02T08:05:59.193Z,443.00
2023-04-02T08:06:59.250Z,445.00
2023-04-02T08:07:59.359Z,445.00
2023-04-02T08:08:59.342Z,446.00
2023-04-02T08:09:59.441Z,445.00
2023-04-02T08:10:59.514Z,448.00
2023-04-02T08:11:59.587Z,448.00
2023-04-02T08:12:59.654Z,448.00
2023-04-02T08:13:59.748Z,448.00
2023-04-02T08:14:59.812Z,449.00
2023-04-02T08:15:59.832Z,449.00
2023-04-02T08:16:59.892Z,448.00
2023-04-02T08:18:00.010Z,448.00
2023-04-02T08:19:00.065Z,448.00
2023-04-02T08:20:00.175Z,445.00
2023-04-02T08:21:00.195Z,446.00
2023-04-02T08:22:00.244Z,447.00
2023-04-02T08:23:00.353Z,445.00
2023-04-02T08:24:00.410Z,442.00
2023-04-02T08:25:00.433Z,441.00
2023-04-02T08:26:00.538Z,444.00
2023-04-02T08:27:00.594Z,444.00
2023-04-02T08:28:00.669Z,444.00
2023-04-02T08:29:00.713Z,446.00
2023-04-02T08:30:00.788Z,445.00
2023-04-02T08:31:00.931Z,446.00
2023-04-02T08:32:00.932Z,446.00
2023-04-02T08:33:01.019Z,446.00
2023-04-02T08:34:01.043Z,443.00
2023-04-02T08:35:01.137Z,444.00
2023-04-02T08:36:01.206Z,444.00
2023-04-02T08:37:01.292Z,447.00
2023-04-02T08:38:01.389Z,447.00
2023-04-02T08:39:01.458Z,449.00
2023-04-02T08:40:01.465Z,449.00
2023-04-02T08:41:01.664Z,448.00
2023-04-02T08:42:01.616Z,444.00
2023-04-02T08:43:01.672Z,446.00
2023-04-02T08:44:01.813Z,447.00
2023-04-02T08:45:08.109Z,449.00
2023-04-02T08:46:03.013Z,451.00
2023-04-02T08:47:01.946Z,449.00
2023-04-02T08:48:02.018Z,447.00
2023-04-02T08:49:01.996Z,445.00
2023-04-02T08:50:01.935Z,446.00
2023-04-02T08:51:01.952Z,443.00
2023-04-02T08:52:01.953Z,441.00
2023-04-02T08:53:02.009Z,438.00
2023-04-02T08:54:02.010Z,441.00
2023-04-02T08:55:02.045Z,443.00
2023-04-02T08:56:02.044Z,442.00
2023-04-02T08:57:02.148Z,445.00
2023-04-02T08:58:02.248Z,445.00
2023-04-02T08:59:02.282Z,444.00
2023-04-02T09:00:02.351Z,443.00
2023-04-02T09:01:02.361Z,446.00
2023-04-02T09:02:02.455Z,445.00
2023-04-02T09:03:02.597Z,444.00
2023-04-02T09:04:02.615Z,443.00
2023-04-02T09:05:02.710Z,443.00
2023-04-02T09:06:02.768Z,442.00
2023-04-02T09:07:02.837Z,441.00
2023-04-02T09:08:02.961Z,440.00
2023-04-02T09:09:02.958Z,438.00
2023-04-02T09:10:02.985Z,438.00
2023-04-02T09:11:03.087Z,438.00
2023-04-02T09:12:03.193Z,440.00
2023-04-02T09:13:03.272Z,440.00
2023-04-02T09:14:03.310Z,440.00
2023-04-02T09:15:03.375Z,440.00
2023-04-02T09:16:03.507Z,439.00
2023-04-02T09:17:03.491Z,442.00
2023-04-02T09:18:03.617Z,445.00
2023-04-02T09:19:03.635Z,446.00
2023-04-02T09:20:03.666Z,446.00
2023-04-02T09:21:03.763Z,446.00
2023-04-02T09:22:03.817Z,448.00
2023-04-02T09:23:03.907Z,448.00
2023-04-02T09:24:04.726Z,445.00
2023-04-02T09:25:04.049Z,443.00
2023-04-02T09:26:05.028Z,442.00
2023-04-02T09:27:04.177Z,440.00
2023-04-02T09:28:04.251Z,440.00
2023-04-02T09:29:04.296Z,442.00
2023-04-02T09:30:04.356Z,440.00
2023-04-02T09:31:06.661Z,438.00
2023-04-02T09:32:04.581Z,440.00
2023-04-02T09:33:04.442Z,441.00
2023-04-02T09:34:04.431Z,441.00
2023-04-02T09:35:12.275Z,443.00
2023-04-02T09:36:05.567Z,443.00
2023-04-02T09:37:04.479Z,442.00
2023-04-02T09:38:04.517Z,444.00
2023-04-02T09:39:04.512Z,444.00
2023-04-02T09:40:04.552Z,445.00
2023-04-02T09:41:04.557Z,444.00
2023-04-02T09:42:05.973Z,443.00
2023-04-02T09:43:04.563Z,442.00
2023-04-02T09:44:04.631Z,440.00
2023-04-02T09:45:04.648Z,440.00
2023-04-02T09:46:04.645Z,440.00
2023-04-02T09:47:04.831Z,439.00
2023-04-02T09:48:04.770Z,439.00
2023-04-02T09:49:04.750Z,440.00
2023-04-02T09:50:04.807Z,440.00
2023-04-02T09:51:04.856Z,442.00
2023-04-02T09:52:04.899Z,441.00
2023-04-02T09:53:04.945Z,440.00
2023-04-02T09:54:05.013Z,440.00
2023-04-02T09:55:05.100Z,439.00
2023-04-02T09:56:05.153Z,438.00
2023-04-02T09:57:05.222Z,439.00
2023-04-02T09:58:05.283Z,442.00
2023-04-02T09:59:05.320Z,440.00
2023-04-02T10:00:05.397Z,440.00
2023-04-02T10:01:05.461Z,440.00
2023-04-02T10:02:05.522Z,440.00
2023-04-02T10:03:05.602Z,441.00
2023-04-02T10:04:05.662Z,443.00
2023-04-02T10:05:05.707Z,442.00
2023-04-02T10:06:05.758Z,441.00
2023-04-02T10:07:05.825Z,439.00
2023-04-02T10:08:05.890Z,438.00
2023-04-02T10:09:05.952Z,437.00
2023-04-02T10:10:06.029Z,434.00
2023-04-02T10:11:06.073Z,434.00
2023-04-02T10:12:06.203Z,433.00
2023-04-02T10:13:06.211Z,433.00
2023-04-02T10:14:06.281Z,432.00
2023-04-02T10:15:06.369Z,434.00
2023-04-02T10:16:06.433Z,433.00
2023-04-02T10:17:06.589Z,432.00
2023-04-02T10:18:06.640Z,431.00
2023-04-02T10:19:06.676Z,432.00
2023-04-02T10:20:06.715Z,432.00
2023-04-02T10:21:06.776Z,432.00
2023-04-02T10:22:06.852Z,433.00
2023-04-02T10:23:06.909Z,434.00
2023-04-02T10:24:06.971Z,435.00
2023-04-02T10:25:07.053Z,434.00
2023-04-02T10:26:07.111Z,436.00
2023-04-02T10:27:07.165Z,435.00
2023-04-02T10:28:07.264Z,435.00
2023-04-02T10:29:07.316Z,435.00
2023-04-02T10:30:07.339Z,433.00
2023-04-02T10:31:07.481Z,432.00
2023-04-02T10:32:07.457Z,431.00
2023-04-02T10:33:07.566Z,433.00
2023-04-02T10:34:07.565Z,432.00
2023-04-02T10:35:07.675Z,433.00
2023-04-02T10:36:07.787Z,435.00
2023-04-02T10:37:07.720Z,436.00
2023-04-02T10:38:07.761Z,434.00
2023-04-02T10:39:07.853Z,434.00
2023-04-02T10:40:07.894Z,433.00
2023-04-02T10:41:07.964Z,434.00
2023-04-02T10:42:08.027Z,434.00
2023-04-02T10:43:08.061Z,432.00
2023-04-02T10:44:17.168Z,431.00
2023-04-02T10:45:09.162Z,431.00
2023-04-02T10:46:08.251Z,429.00
2023-04-02T10:47:08.210Z,431.00
2023-04-02T10:48:08.314Z,430.00
2023-04-02T10:49:08.231Z,431.00
2023-04-02T10:50:08.259Z,431.00
2023-04-02T10:51:08.268Z,431.00
2023-04-02T10:52:08.293Z,430.00
2023-04-02T10:53:08.349Z,430.00
2023-04-02T10:54:08.333Z,431.00
2023-04-02T10:55:08.369Z,430.00
2023-04-02T10:56:08.369Z,429.00
2023-04-02T10:57:08.440Z,430.00
2023-04-02T10:58:08.434Z,430.00
2023-04-02T10:59:08.429Z,430.00
2023-04-02T11:00:08.450Z,430.00
2023-04-02T11:01:08.530Z,431.00
2023-04-02T11:02:08.594Z,431.00
2023-04-02T11:03:08.722Z,433.00
2023-04-02T11:04:08.666Z,432.00
2023-04-02T11:05:08.746Z,431.00
2023-04-02T11:06:10.760Z,431.00
2023-04-02T11:07:14.598Z,430.00
2023-04-02T11:08:09.862Z,430.00
2023-04-02T11:09:08.874Z,432.00
2023-04-02T11:10:08.869Z,434.00
2023-04-02T11:11:08.941Z,434.00
2023-04-02T11:12:08.944Z,434.00
2023-04-02T11:13:08.978Z,436.00
2023-04-02T11:14:08.989Z,437.00
2023-04-02T11:15:08.983Z,436.00
2023-04-02T11:16:09.029Z,435.00
2023-04-02T11:17:09.041Z,437.00
2023-04-02T11:18:09.060Z,438.00
2023-04-02T11:19:09.052Z,436.00
2023-04-02T11:20:09.086Z,437.00
2023-04-02T11:21:09.116Z,436.00
2023-04-02T11:22:09.192Z,436.00
2023-04-02T11:23:09.282Z,437.00
2023-04-02T11:24:09.353Z,437.00
2023-04-02T11:25:09.409Z,434.00
2023-04-02T11:26:09.519Z,433.00
2023-04-02T11:27:09.555Z,434.00
2023-04-02T11:28:09.615Z,434.00
2023-04-02T11:29:09.685Z,436.00
2023-04-02T11:30:09.746Z,436.00
2023-04-02T11:31:09.792Z,436.00
2023-04-02T11:32:09.852Z,434.00
2023-04-02T11:33:09.960Z,433.00
2023-04-02T11:34:09.938Z,435.00
2023-04-02T11:35:10.003Z,433.00
2023-04-02T11:36:10.123Z,435.00
2023-04-02T11:37:10.126Z,436.00
2023-04-02T11:38:10.194Z,437.00
2023-04-02T11:39:16.922Z,438.00
2023-04-02T11:40:11.267Z,441.00
2023-04-02T11:41:10.283Z,442.00
2023-04-02T11:42:10.298Z,442.00
2023-04-02T11:43:10.304Z,441.00
2023-04-02T11:44:10.335Z,436.00
2023-04-02T11:45:10.370Z,437.00
2023-04-02T11:46:10.439Z,437.00
2023-04-02T11:47:10.399Z,438.00
2023-04-02T11:48:10.423Z,437.00
2023-04-02T11:49:10.422Z,434.00
2023-04-02T11:50:10.507Z,435.00
2023-04-02T11:51:10.465Z,435.00
2023-04-02T11:52:12.590Z,434.00
2023-04-02T11:53:10.523Z,437.00
2023-04-02T11:54:10.542Z,436.00
2023-04-02T11:55:10.621Z,437.00
2023-04-02T11:56:10.661Z,439.00
2023-04-02T11:57:10.751Z,440.00
2023-04-02T11:58:10.758Z,439.00
2023-04-02T11:59:10.837Z,439.00
2023-04-02T12:00:10.916Z,440.00
2023-04-02T12:01:10.940Z,441.00
2023-04-02T12:02:11.091Z,441.00
2023-04-02T12:03:11.118Z,439.00
2023-04-02T12:04:11.158Z,434.00
2023-04-02T12:05:11.275Z,433.00
2023-04-02T12:06:11.265Z,432.00
2023-04-02T12:07:11.339Z,430.00
2023-04-02T12:08:11.421Z,431.00
2023-04-02T12:09:11.477Z,433.00
2023-04-02T12:10:11.541Z,433.00
2023-04-02T12:11:11.605Z,433.00
2023-04-02T12:12:11.666Z,434.00
2023-04-02T12:13:11.714Z,436.00
2023-04-02T12:14:11.777Z,437.00
2023-04-02T12:15:11.838Z,436.00
2023-04-02T12:16:11.938Z,434.00
2023-04-02T12:17:12.234Z,432.00
2023-04-02T12:18:12.050Z,433.00
2023-04-02T12:19:12.119Z,432.00
2023-04-02T12:20:12.180Z,436.00
2023-04-02T12:21:12.234Z,433.00
2023-04-02T12:22:12.277Z,434.00
2023-04-02T12:23:12.335Z,432.00
2023-04-02T12:24:12.431Z,433.00
2023-04-02T12:25:12.477Z,431.00
2023-04-02T12:26:12.522Z,434.00
2023-04-02T12:27:12.589Z,433.00
2023-04-02T12:28:12.652Z,433.00
2023-04-02T12:29:12.732Z,432.00